createdAt,value
2019-04-29T00:02:09.071Z,99973.56
2019-04-29T00:04:37.483Z,99977.47
2019-04-29T00:07:06.002Z,99971.60
2019-04-29T00:09:34.346Z,99975.53
2019-04-29T00:12:02.793Z,99977.42
2019-04-29T00:14:31.305Z,99976.05
2019-04-29T00:17:19.435Z,99974.56
2019-04-29T00:20:07.526Z,99973.34
2019-04-29T00:22:35.902Z,99973.27
2019-04-29T00:25:04.889Z,99973.76
2019-04-29T00:27:33.329Z,99973.40
2019-04-29T00:30:01.744Z,99970.77
2019-04-29T00:32:30.192Z,99971.03
2019-04-29T00:34:58.536Z,99975.86
2019-04-29T00:37:28.621Z,99969.20
2019-04-29T00:40:04.507Z,99974.71
2019-04-29T00:42:34.542Z,99971.69
2019-04-29T00:45:03.097Z,99967.33
2019-04-29T00:47:31.474Z,99975.44
2019-04-29T00:49:59.817Z,99973.05
2019-04-29T00:52:28.263Z,99977.49
2019-04-29T00:55:00.745Z,99975.12
2019-04-29T00:57:29.126Z,99975.70
2019-04-29T00:59:57.468Z,99975.96
2019-04-29T01:02:25.918Z,99978.42
2019-04-29T01:04:54.332Z,99975.36
2019-04-29T01:07:22.710Z,99973.23
2019-04-29T01:09:51.128Z,99976.17
2019-04-29T01:12:19.508Z,99970.55
2019-04-29T01:14:47.854Z,99980.36
2019-04-29T01:17:16.305Z,99984.12
2019-04-29T01:19:44.653Z,99979.58
2019-04-29T01:22:13.098Z,99977.16
2019-04-29T01:24:41.444Z,99976.36
2019-04-29T01:27:11.460Z,99978.92
2019-04-29T01:29:39.945Z,99976.17
2019-04-29T01:32:08.393Z,99984.58
2019-04-29T01:34:38.373Z,99990.33
2019-04-29T01:37:06.819Z,99990.27
2019-04-29T01:39:48.754Z,99990.22
2019-04-29T01:42:18.778Z,99990.92
2019-04-29T01:44:47.129Z,99997.19
2019-04-29T01:47:15.571Z,99994.02
2019-04-29T01:49:43.915Z,99997.95
2019-04-29T01:52:12.423Z,100001.36
2019-04-29T01:54:40.864Z,100001.50
2019-04-29T01:57:09.522Z,99996.80
2019-04-29T01:59:37.870Z,99997.39
2019-04-29T02:02:06.278Z,100001.22
2019-04-29T02:04:34.732Z,100003.16
2019-04-29T02:07:03.221Z,100010.17
2019-04-29T02:09:41.914Z,100010.00
2019-04-29T02:12:10.348Z,100012.21
2019-04-29T02:14:38.802Z,100011.81
2019-04-29T02:17:07.225Z,100012.58
2019-04-29T02:19:35.679Z,100015.14
2019-04-29T02:22:08.713Z,100012.64
2019-04-29T02:24:38.895Z,100013.09
2019-04-29T02:27:07.241Z,100014.72
2019-04-29T02:29:35.696Z,100010.63
2019-04-29T02:32:04.043Z,100015.14
2019-04-29T02:34:32.421Z,100020.34
2019-04-29T02:37:02.419Z,100019.65
2019-04-29T02:39:41.232Z,100018.38
2019-04-29T02:42:27.884Z,100024.45
2019-04-29T02:44:57.604Z,100023.42
2019-04-29T02:47:25.961Z,100023.54
2019-04-29T02:49:54.424Z,100026.83
2019-04-29T02:52:22.779Z,100026.50
2019-04-29T02:54:52.869Z,100030.76
2019-04-29T02:57:25.920Z,100018.73
2019-04-29T02:59:58.602Z,100029.00
2019-04-29T03:02:43.947Z,100030.94
2019-04-29T03:05:22.571Z,100032.09
2019-04-29T03:07:51.399Z,100036.47
2019-04-29T03:10:19.849Z,100039.53
2019-04-29T03:12:48.271Z,100036.34
2019-04-29T03:15:19.821Z,100044.39
2019-04-29T03:17:48.247Z,100037.80
2019-04-29T03:20:20.791Z,100038.42
2019-04-29T03:22:50.519Z,100038.97
2019-04-29T03:25:18.910Z,100040.27
2019-04-29T03:27:47.262Z,100041.27
2019-04-29T03:30:15.739Z,100039.75
2019-04-29T03:32:44.143Z,100037.22
2019-04-29T03:35:12.583Z,100043.69
2019-04-29T03:37:41.003Z,100039.98
2019-04-29T03:40:09.458Z,100044.81
2019-04-29T03:42:37.808Z,100040.01
2019-04-29T03:45:07.230Z,100045.14
2019-04-29T03:47:35.657Z,100043.75
2019-04-29T03:50:05.015Z,100042.70
2019-04-29T03:52:33.367Z,100047.84
2019-04-29T03:55:01.817Z,100045.23
2019-04-29T03:57:31.902Z,100045.66
2019-04-29T04:00:00.286Z,100047.41
2019-04-29T04:02:30.359Z,100050.84
2019-04-29T04:05:16.630Z,100045.47
2019-04-29T04:07:52.391Z,100045.28
2019-04-29T04:10:20.764Z,100044.23
2019-04-29T04:12:49.140Z,100044.56
2019-04-29T04:15:17.703Z,100048.57
2019-04-29T04:17:47.799Z,100050.14
2019-04-29T04:20:17.420Z,100055.06
2019-04-29T04:22:46.668Z,100059.56
2019-04-29T04:25:15.660Z,100070.77
2019-04-29T04:27:44.247Z,100069.88
2019-04-29T04:30:14.435Z,100062.30
2019-04-29T04:32:43.433Z,100069.60
2019-04-29T04:35:11.885Z,100070.05
2019-04-29T04:37:40.276Z,100063.48
2019-04-29T04:40:10.603Z,100068.19
2019-04-29T04:42:39.153Z,100069.26
2019-04-29T04:45:08.051Z,100077.37
2019-04-29T04:47:36.429Z,100078.83
2019-04-29T04:50:06.660Z,100076.80
2019-04-29T04:52:35.111Z,100085.02
2019-04-29T04:55:04.422Z,100083.36
2019-04-29T04:57:32.860Z,100084.47
2019-04-29T05:00:01.468Z,100091.54
2019-04-29T05:02:29.892Z,100086.86
2019-04-29T05:04:58.422Z,100089.62
2019-04-29T05:07:26.874Z,100092.48
2019-04-29T05:09:55.292Z,100095.24
2019-04-29T05:12:23.828Z,100092.84
2019-04-29T05:14:52.177Z,100089.00
2019-04-29T05:17:20.637Z,100094.37
2019-04-29T05:19:48.996Z,100093.52
2019-04-29T05:22:17.385Z,100093.55
2019-04-29T05:24:45.809Z,100099.75
2019-04-29T05:27:14.261Z,100099.73
2019-04-29T05:29:42.612Z,100101.79
2019-04-29T05:32:11.135Z,100102.91
2019-04-29T05:34:41.715Z,100101.56
2019-04-29T05:37:12.988Z,100107.71
2019-04-29T05:39:43.036Z,100111.27
2019-04-29T05:42:16.268Z,100111.61
2019-04-29T05:44:43.146Z,100119.67
2019-04-29T05:47:29.326Z,100119.10
2019-04-29T05:50:16.839Z,100116.48
2019-04-29T05:52:50.033Z,100111.75
2019-04-29T05:55:18.458Z,100116.53
2019-04-29T05:57:46.908Z,100120.41
2019-04-29T06:00:18.759Z,100125.26
2019-04-29T06:02:46.558Z,100125.18
2019-04-29T06:05:16.584Z,100120.66
2019-04-29T06:07:47.102Z,100124.78
2019-04-29T06:10:18.132Z,100129.44
2019-04-29T06:12:45.705Z,100132.27
2019-04-29T06:15:14.138Z,100135.33
2019-04-29T06:19:48.583Z,100127.98
2019-04-29T06:22:17.006Z,100130.11
2019-04-29T06:24:45.414Z,100133.67
2019-04-29T06:27:13.747Z,100136.32
2019-04-29T06:29:42.207Z,100134.52
2019-04-29T06:32:10.567Z,100139.98
2019-04-29T06:34:40.200Z,100145.25
2019-04-29T06:37:09.165Z,100143.94
2019-04-29T06:39:37.544Z,100142.88
2019-04-29T06:42:05.961Z,100146.29
2019-04-29T06:44:34.342Z,100154.80
2019-04-29T06:47:02.692Z,100153.23
2019-04-29T06:49:31.080Z,100156.19
2019-04-29T06:51:59.429Z,100155.13
2019-04-29T06:54:27.807Z,100161.35
2019-04-29T06:56:56.226Z,100164.34
2019-04-29T06:59:24.605Z,100162.83
2019-04-29T07:01:52.956Z,100168.09
2019-04-29T07:04:21.405Z,100171.19
2019-04-29T07:06:57.133Z,100174.81
2019-04-29T07:09:19.857Z,100171.12
2019-04-29T07:11:48.271Z,100175.02
2019-04-29T07:14:16.646Z,100171.97
2019-04-29T07:16:45.067Z,100176.08
2019-04-29T07:19:13.439Z,100167.30
2019-04-29T07:21:46.422Z,100168.70
2019-04-29T07:24:11.899Z,100173.67
2019-04-29T07:26:40.245Z,100169.40
2019-04-29T07:29:08.693Z,100164.80
2019-04-29T07:31:37.294Z,100167.87
2019-04-29T07:34:08.317Z,100166.52
2019-04-29T07:36:35.815Z,100169.73
2019-04-29T07:39:06.038Z,100168.00
2019-04-29T07:41:34.454Z,100173.13
2019-04-29T07:44:02.898Z,100174.25
2019-04-29T07:46:36.327Z,100179.23
2019-04-29T07:49:05.674Z,100181.61
2019-04-29T07:51:39.394Z,100174.53
2019-04-29T07:54:06.394Z,100175.05
2019-04-29T07:56:37.942Z,100171.02
2019-04-29T07:59:05.060Z,100172.78
2019-04-29T08:01:33.410Z,100169.28
2019-04-29T08:04:01.926Z,100165.16
2019-04-29T08:06:30.622Z,100170.80
2019-04-29T08:09:07.160Z,100164.58
2019-04-29T08:11:31.211Z,100159.17
2019-04-29T08:14:01.549Z,100166.74
2019-04-29T08:16:29.898Z,100165.96
2019-04-29T08:18:58.285Z,100170.72
2019-04-29T08:21:26.707Z,100159.70
2019-04-29T08:23:55.126Z,100162.69
2019-04-29T08:26:23.508Z,100159.66
2019-04-29T08:28:52.442Z,100157.81
2019-04-29T08:31:22.265Z,100160.68
2019-04-29T08:33:50.786Z,100157.94
2019-04-29T08:36:19.172Z,100157.78
2019-04-29T08:38:47.588Z,100149.62
2019-04-29T08:41:15.979Z,100158.16
2019-04-29T08:44:15.314Z,100157.84
2019-04-29T08:46:29.770Z,100151.47
2019-04-29T08:49:01.227Z,100153.87
2019-04-29T08:51:28.229Z,100148.64
2019-04-29T08:53:56.651Z,100151.45
2019-04-29T08:56:25.038Z,100151.58
2019-04-29T08:58:53.385Z,100138.23
2019-04-29T09:01:24.522Z,100142.34
2019-04-29T09:03:53.839Z,100130.85
2019-04-29T09:06:22.021Z,100136.41
2019-04-29T09:08:55.374Z,100133.00
2019-04-29T09:11:20.548Z,100129.17
2019-04-29T09:13:48.969Z,100126.08
2019-04-29T09:16:17.505Z,100127.78
2019-04-29T09:18:45.853Z,100120.96
2019-04-29T09:21:14.416Z,100121.55
2019-04-29T09:23:42.847Z,100118.42
2019-04-29T09:26:24.258Z,100123.95
2019-04-29T09:28:52.776Z,100119.30
2019-04-29T09:31:21.230Z,100121.56
2019-04-29T09:33:50.958Z,100113.71
2019-04-29T09:36:19.763Z,100110.55
2019-04-29T09:38:48.184Z,100114.03
2019-04-29T09:41:18.199Z,100107.33
2019-04-29T09:44:05.591Z,100108.45
2019-04-29T09:46:35.859Z,100105.38
2019-04-29T09:49:04.276Z,100109.44
2019-04-29T09:51:32.724Z,100104.92
2019-04-29T09:54:01.075Z,100110.58
2019-04-29T09:56:29.450Z,100102.00
2019-04-29T09:59:15.520Z,100095.98
2019-04-29T10:01:50.440Z,100101.01
2019-04-29T10:04:37.929Z,100090.63
2019-04-29T10:07:07.761Z,100085.70
2019-04-29T10:09:36.178Z,100085.67
2019-04-29T10:12:04.625Z,100080.55
2019-04-29T10:14:33.134Z,100082.20
2019-04-29T10:17:03.649Z,100080.44
2019-04-29T10:19:36.341Z,100082.55
2019-04-29T10:22:05.254Z,100081.88
2019-04-29T10:24:33.665Z,100078.53
2019-04-29T10:27:02.047Z,100078.01
2019-04-29T10:29:32.043Z,100074.78
2019-04-29T10:32:02.410Z,100067.80
2019-04-29T10:34:32.932Z,100065.51
2019-04-29T10:37:01.511Z,100060.06
2019-04-29T10:39:37.271Z,100062.97
2019-04-29T10:42:07.429Z,100051.22
2019-04-29T10:44:37.665Z,100046.13
2019-04-29T10:47:12.849Z,100036.77
2019-04-29T10:49:42.829Z,100033.27
2019-04-29T10:52:11.285Z,100031.89
2019-04-29T10:54:39.637Z,100029.12
2019-04-29T10:57:10.599Z,100025.56
2019-04-29T10:59:40.723Z,100029.41
2019-04-29T11:02:22.758Z,100029.53
2019-04-29T11:05:02.761Z,100026.41
2019-04-29T11:07:38.861Z,100020.75
2019-04-29T11:10:28.599Z,100027.05
2019-04-29T11:12:57.219Z,100022.59
2019-04-29T11:15:32.514Z,100024.45
2019-04-29T11:18:03.510Z,100023.26
2019-04-29T11:20:30.829Z,100020.35
2019-04-29T11:23:16.698Z,100022.90
2019-04-29T11:25:51.315Z,100021.37
2019-04-29T11:28:20.646Z,100023.37
2019-04-29T11:30:49.710Z,100020.17
2019-04-29T11:33:19.954Z,100016.42
2019-04-29T11:36:05.922Z,100014.33
2019-04-29T11:38:38.179Z,100007.94
2019-04-29T11:41:05.099Z,100000.89
2019-04-29T11:43:33.480Z,100006.45
2019-04-29T11:46:01.966Z,99999.00
2019-04-29T11:48:30.522Z,99998.89
2019-04-29T11:51:06.476Z,99993.61
2019-04-29T11:53:34.915Z,99993.34
2019-04-29T11:56:03.340Z,99992.19
2019-04-29T11:58:39.638Z,99991.81
2019-04-29T12:01:38.627Z,99988.27
2019-04-29T12:04:16.368Z,99980.17
2019-04-29T12:06:45.348Z,99974.23
2019-04-29T12:09:13.813Z,99978.63
2019-04-29T12:11:42.167Z,99970.36
2019-04-29T12:14:21.491Z,99966.67
2019-04-29T12:17:00.107Z,99964.84
2019-04-29T12:19:38.694Z,99957.44
2019-04-29T12:22:08.937Z,99954.39
2019-04-29T12:24:37.816Z,99954.39
2019-04-29T12:27:06.448Z,99946.11
2019-04-29T12:29:34.824Z,99938.09
2019-04-29T12:32:20.646Z,99934.96
2019-04-29T12:35:04.580Z,99935.30
2019-04-29T12:37:37.631Z,99936.11
2019-04-29T12:40:25.509Z,99932.38
2019-04-29T12:43:11.324Z,99930.55
2019-04-29T12:45:42.183Z,99927.95
2019-04-29T12:48:23.970Z,99928.86
2019-04-29T12:50:40.944Z,99927.25
2019-04-29T12:53:09.390Z,99922.63
2019-04-29T12:55:45.116Z,99923.08
2019-04-29T12:58:10.149Z,99922.54
2019-04-29T13:00:47.883Z,99919.56
2019-04-29T13:03:13.449Z,99918.86
2019-04-29T13:06:02.613Z,99911.63
2019-04-29T13:08:35.391Z,99910.31
2019-04-29T13:11:05.516Z,99906.47
2019-04-29T13:13:33.967Z,99901.77
2019-04-29T13:16:21.871Z,99897.56
2019-04-29T13:19:10.694Z,99904.88
2019-04-29T13:21:27.754Z,99904.14
2019-04-29T13:24:12.845Z,99905.05
2019-04-29T13:26:28.717Z,99904.14
2019-04-29T13:29:01.354Z,99899.56
2019-04-29T13:31:37.940Z,99896.57
2019-04-29T13:34:04.758Z,99889.97
2019-04-29T13:36:28.460Z,99892.47
2019-04-29T13:38:56.870Z,99894.13
2019-04-29T13:41:26.008Z,99887.37
2019-04-29T13:44:04.108Z,99891.64
2019-04-29T13:46:27.917Z,99884.97
2019-04-29T13:49:13.547Z,99880.64
2019-04-29T13:51:47.534Z,99886.05
2019-04-29T13:54:15.980Z,99886.67
2019-04-29T13:56:55.648Z,99881.44
2019-04-29T13:59:28.045Z,99887.86
2019-04-29T14:02:02.807Z,99885.84
2019-04-29T14:04:41.924Z,99884.25
2019-04-29T14:07:14.015Z,99885.95
2019-04-29T14:09:40.603Z,99882.88
2019-04-29T14:12:46.462Z,99878.41
2019-04-29T14:14:39.096Z,99877.19
2019-04-29T14:17:25.249Z,99881.98
2019-04-29T14:19:42.311Z,99879.07
2019-04-29T14:22:21.533Z,99880.33
2019-04-29T14:24:39.525Z,99872.64
2019-04-29T14:27:07.944Z,99875.66
2019-04-29T14:29:36.292Z,99867.02
2019-04-29T14:32:04.811Z,99865.35
2019-04-29T14:34:36.618Z,99871.20
2019-04-29T14:37:19.506Z,99872.42
2019-04-29T14:39:37.234Z,99863.31
2019-04-29T14:42:19.225Z,99860.42
2019-04-29T14:44:49.329Z,99865.50
2019-04-29T14:47:19.318Z,99869.78
2019-04-29T14:49:54.933Z,99867.66
2019-04-29T14:52:21.920Z,99862.10
2019-04-29T14:54:50.263Z,99863.38
2019-04-29T14:57:18.641Z,99861.58
2019-04-29T14:59:47.273Z,99870.87
2019-04-29T15:02:31.199Z,99868.33
2019-04-29T15:04:57.019Z,99870.44
2019-04-29T15:07:27.032Z,99873.19
2019-04-29T15:09:56.334Z,99872.67
2019-04-29T15:12:28.901Z,99869.41
2019-04-29T15:15:04.886Z,99867.00
2019-04-29T15:17:47.151Z,99864.78
2019-04-29T15:20:17.424Z,99869.44
2019-04-29T15:22:45.839Z,99873.08
2019-04-29T15:25:16.717Z,99866.05
2019-04-29T15:27:44.520Z,99867.14
2019-04-29T15:30:14.536Z,99865.44
2019-04-29T15:32:42.912Z,99862.75
2019-04-29T15:35:11.397Z,99860.26
2019-04-29T15:37:39.841Z,99861.52
2019-04-29T15:40:08.545Z,99859.19
2019-04-29T15:42:37.907Z,99860.40
2019-04-29T15:45:08.186Z,99854.91
2019-04-29T15:47:36.944Z,99860.19
2019-04-29T15:50:18.343Z,99857.62
2019-04-29T15:52:37.406Z,99863.14
2019-04-29T15:55:05.823Z,99864.85
2019-04-29T15:57:34.450Z,99861.41
2019-04-29T16:00:20.784Z,99857.34
2019-04-29T16:02:38.821Z,99853.05
2019-04-29T16:05:09.274Z,99854.19
2019-04-29T16:07:55.721Z,99858.58
2019-04-29T16:10:44.639Z,99849.75
2019-04-29T16:13:14.348Z,99849.46
2019-04-29T16:15:42.763Z,99845.17
2019-04-29T16:18:14.751Z,99844.98
2019-04-29T16:20:41.967Z,99842.34
2019-04-29T16:23:10.349Z,99841.22
2019-04-29T16:25:40.858Z,99830.02
2019-04-29T16:28:08.860Z,99827.59
2019-04-29T16:30:37.377Z,99828.07
2019-04-29T16:33:13.029Z,99830.23
2019-04-29T16:35:36.246Z,99828.86
2019-04-29T16:38:11.268Z,99827.27
2019-04-29T16:40:39.245Z,99831.70
2019-04-29T16:43:08.480Z,99827.75
2019-04-29T16:45:51.371Z,99826.81
2019-04-29T16:48:14.337Z,99830.28
2019-04-29T16:50:42.677Z,99827.16
2019-04-29T16:53:11.053Z,99822.06
2019-04-29T16:55:43.234Z,99830.30
2019-04-29T16:58:18.223Z,99821.38
2019-04-29T17:00:46.833Z,99823.64
2019-04-29T17:03:16.551Z,99824.23
2019-04-29T17:05:46.959Z,99818.30
2019-04-29T17:08:17.433Z,99817.25
2019-04-29T17:10:57.273Z,99815.94
2019-04-29T17:13:27.141Z,99820.00
2019-04-29T17:15:55.627Z,99822.39
2019-04-29T17:18:25.670Z,99825.98
2019-04-29T17:21:04.694Z,99822.62
2019-04-29T17:23:26.825Z,99822.28
2019-04-29T17:25:57.665Z,99817.10
2019-04-29T17:28:38.998Z,99819.31
2019-04-29T17:31:15.629Z,99819.14
2019-04-29T17:33:50.978Z,99822.85
2019-04-29T17:36:23.790Z,99823.89
2019-04-29T17:38:51.149Z,99822.03
2019-04-29T17:41:21.838Z,99830.16
2019-04-29T17:43:58.150Z,99826.50
2019-04-29T17:46:44.403Z,99822.77
2019-04-29T17:49:16.883Z,99829.29
2019-04-29T17:51:46.011Z,99834.86
2019-04-29T17:54:16.068Z,99833.02
2019-04-29T17:57:04.896Z,99838.91
2019-04-29T17:59:29.718Z,99848.92
2019-04-29T18:02:20.762Z,99853.47
2019-04-29T18:05:02.104Z,99860.89
2019-04-29T18:07:40.500Z,99873.25
2019-04-29T18:10:29.431Z,99868.03
2019-04-29T18:12:57.000Z,99866.53
2019-04-29T18:15:26.993Z,99863.14
2019-04-29T18:17:55.863Z,99860.34
2019-04-29T18:20:32.874Z,99866.19
2019-04-29T18:23:19.097Z,99871.08
2019-04-29T18:25:57.112Z,99873.25
2019-04-29T18:28:26.159Z,99873.54
2019-04-29T18:30:57.836Z,99872.95
2019-04-29T18:33:30.014Z,99867.50
2019-04-29T18:36:03.703Z,99871.36
2019-04-29T18:38:26.933Z,99866.66
2019-04-29T18:40:55.814Z,99866.76
2019-04-29T18:43:26.490Z,99862.19
2019-04-29T18:45:58.824Z,99856.08
2019-04-29T18:48:27.160Z,99864.72
2019-04-29T18:50:57.100Z,99851.47
2019-04-29T18:53:27.692Z,99869.86
2019-04-29T18:55:56.557Z,99865.73
2019-04-29T18:58:25.113Z,99871.20
2019-04-29T19:00:57.527Z,99875.64
2019-04-29T19:03:29.806Z,99871.00
2019-04-29T19:06:03.289Z,99848.12
2019-04-29T19:08:31.852Z,99873.59
2019-04-29T19:11:00.107Z,99885.02
2019-04-29T19:13:30.835Z,99876.23
2019-04-29T19:16:09.043Z,99874.84
2019-04-29T19:18:29.034Z,99870.31
2019-04-29T19:20:57.421Z,99876.72
2019-04-29T19:23:29.428Z,99874.86
2019-04-29T19:25:56.031Z,99876.72
2019-04-29T19:28:29.563Z,99877.38
2019-04-29T19:30:57.837Z,99879.92
2019-04-29T19:33:25.347Z,99893.59
2019-04-29T19:35:55.427Z,99891.68
2019-04-29T19:38:25.339Z,99886.56
2019-04-29T19:40:53.897Z,99887.91
2019-04-29T19:43:23.082Z,99890.77
2019-04-29T19:45:51.534Z,99888.48
2019-04-29T19:48:22.380Z,99883.81
2019-04-29T19:51:13.005Z,99884.34
2019-04-29T19:53:20.232Z,99884.53
2019-04-29T19:56:01.282Z,99891.06
2019-04-29T19:58:27.922Z,99899.41
2019-04-29T20:00:50.061Z,99900.41
2019-04-29T20:03:24.053Z,99901.23
2019-04-29T20:06:07.799Z,99902.24
2019-04-29T20:08:46.686Z,99895.36
2019-04-29T20:11:11.158Z,99889.63
2019-04-29T20:13:31.490Z,99893.29
2019-04-29T20:16:10.848Z,99892.81
2019-04-29T20:18:40.787Z,99892.89
2019-04-29T20:21:20.491Z,99886.95
2019-04-29T20:23:41.502Z,99881.88
2019-04-29T20:26:16.125Z,99879.23
2019-04-29T20:28:40.248Z,99864.70
2019-04-29T20:31:19.220Z,99874.41
2019-04-29T20:33:42.092Z,99875.92
2019-04-29T20:36:09.153Z,99881.34
2019-04-29T20:38:39.022Z,99881.78
2019-04-29T20:41:08.212Z,99879.52
2019-04-29T20:43:37.085Z,99878.01
2019-04-29T20:46:05.728Z,99876.89
2019-04-29T20:48:36.790Z,99878.01
2019-04-29T20:51:12.919Z,99874.30
2019-04-29T20:53:52.269Z,99874.19
2019-04-29T20:56:27.411Z,99864.23
2019-04-29T20:58:50.974Z,99868.66
2019-04-29T21:01:38.628Z,99867.10
2019-04-29T21:04:03.064Z,99862.61
2019-04-29T21:06:39.229Z,99861.97
2019-04-29T21:09:06.209Z,99858.15
2019-04-29T21:11:58.502Z,99858.50
2019-04-29T21:14:27.092Z,99863.32
2019-04-29T21:16:57.360Z,99859.22
2019-04-29T21:19:24.948Z,99849.74
2019-04-29T21:21:55.113Z,99850.06
2019-04-29T21:24:25.178Z,99847.09
2019-04-29T21:26:57.401Z,99853.45
2019-04-29T21:29:25.822Z,99856.55
2019-04-29T21:32:06.413Z,99856.72
2019-04-29T21:34:39.839Z,99856.41
2019-04-29T21:37:26.540Z,99859.81
2019-04-29T21:40:14.631Z,99863.48
2019-04-29T21:42:47.091Z,99861.41
2019-04-29T21:45:17.508Z,99866.78
2019-04-29T21:47:52.984Z,99869.57
2019-04-29T21:50:16.431Z,99863.84
2019-04-29T21:52:46.855Z,99862.21
2019-04-29T21:55:16.230Z,99855.13
2019-04-29T21:57:45.270Z,99846.05
2019-04-29T22:00:19.725Z,99850.27
2019-04-29T22:02:48.984Z,99845.66
2019-04-29T22:05:18.443Z,99842.91
2019-04-29T22:07:47.539Z,99838.02
2019-04-29T22:10:19.943Z,99845.77
2019-04-29T22:12:50.986Z,99848.44
2019-04-29T22:15:32.165Z,99853.41
2019-04-29T22:17:56.427Z,99852.17
2019-04-29T22:20:21.497Z,99844.42
2019-04-29T22:22:51.599Z,99840.41
2019-04-29T22:25:20.240Z,99834.08
2019-04-29T22:27:48.914Z,99838.85
2019-04-29T22:30:18.717Z,99834.36
2019-04-29T22:32:51.827Z,99838.05
2019-04-29T22:35:18.960Z,99845.09
2019-04-29T22:37:48.601Z,99844.42
2019-04-29T22:40:17.567Z,99844.34
2019-04-29T22:43:08.476Z,99842.63
2019-04-29T22:45:33.893Z,99841.98
2019-04-29T22:48:14.314Z,99834.23
2019-04-29T22:50:33.713Z,99830.17
2019-04-29T22:53:07.364Z,99833.40
2019-04-29T22:55:35.749Z,99831.02
2019-04-29T22:58:08.204Z,99836.14
2019-04-29T23:00:36.142Z,99834.67
2019-04-29T23:03:06.838Z,99839.77
2019-04-29T23:05:37.925Z,99836.30
2019-04-29T23:08:06.128Z,99835.50
2019-04-29T23:10:35.628Z,99835.42
2019-04-29T23:13:06.202Z,99837.77
2019-04-29T23:15:35.743Z,99834.34
2019-04-29T23:18:05.585Z,99833.11
2019-04-29T23:20:55.365Z,99831.91
2019-04-29T23:23:27.291Z,99827.19
2019-04-29T23:25:59.974Z,99830.05
2019-04-29T23:28:26.943Z,99836.86
2019-04-29T23:30:56.487Z,99831.22
2019-04-29T23:33:26.368Z,99832.67
2019-04-29T23:35:56.533Z,99820.18
2019-04-29T23:38:28.234Z,99827.11
2019-04-29T23:40:58.321Z,99824.09
2019-04-29T23:43:28.362Z,99823.06
2019-04-29T23:46:00.590Z,99827.00
2019-04-29T23:48:38.745Z,99834.11
2019-04-29T23:50:58.442Z,99833.48
2019-04-29T23:53:27.100Z,99835.98
2019-04-29T23:56:00.116Z,99835.50
2019-04-29T23:58:32.537Z,99832.80
